createdAt,value
2022-09-13T00:01:46.157Z,53.98
2022-09-13T00:04:20.103Z,53.90
2022-09-13T00:06:46.954Z,54.21
2022-09-13T00:09:20.667Z,54.31
2022-09-13T00:11:53.761Z,54.45
2022-09-13T00:14:27.139Z,54.31
2022-09-13T00:16:55.965Z,54.32
2022-09-13T00:19:22.815Z,54.27
2022-09-13T00:21:50.386Z,54.32
2022-09-13T00:24:17.643Z,54.41
2022-09-13T00:26:45.414Z,54.89
2022-09-13T00:29:12.160Z,54.41
2022-09-13T00:31:39.540Z,54.33
2022-09-13T00:34:06.472Z,54.20
2022-09-13T00:36:33.428Z,54.18
2022-09-13T00:39:07.548Z,54.36
2022-09-13T00:41:36.240Z,54.41
2022-09-13T00:44:04.623Z,54.55
2022-09-13T00:46:43.081Z,54.44
2022-09-13T00:49:35.606Z,54.57
2022-09-13T00:52:11.718Z,54.74
2022-09-13T00:54:51.611Z,54.71
2022-09-13T00:57:19.199Z,54.61
2022-09-13T00:59:56.810Z,54.72
2022-09-13T01:02:23.690Z,54.65
2022-09-13T01:05:01.700Z,54.78
2022-09-13T01:07:32.621Z,55.01
2022-09-13T01:09:59.986Z,55.06
2022-09-13T01:12:32.677Z,54.90
2022-09-13T01:15:02.750Z,54.98
2022-09-13T01:17:33.445Z,55.00
2022-09-13T01:20:01.421Z,55.29
2022-09-13T01:22:54.739Z,54.98
2022-09-13T01:25:45.913Z,55.05
2022-09-13T01:28:42.148Z,55.03
2022-09-13T01:31:30.025Z,54.91
2022-09-13T01:34:13.974Z,55.07
2022-09-13T01:36:54.929Z,55.00
2022-09-13T01:40:00.724Z,55.12
2022-09-13T01:42:30.820Z,55.18
2022-09-13T01:45:19.483Z,55.12
2022-09-13T01:47:57.694Z,55.58
2022-09-13T01:50:46.866Z,55.51
2022-09-13T01:53:20.374Z,55.49
2022-09-13T01:56:28.796Z,55.58
2022-09-13T01:59:03.532Z,55.59
2022-09-13T02:01:41.445Z,55.51
2022-09-13T02:04:26.628Z,55.44
2022-09-13T02:07:08.823Z,55.43
2022-09-13T02:09:52.779Z,55.32
2022-09-13T02:12:29.454Z,55.31
2022-09-13T02:15:20.837Z,55.16
2022-09-13T02:17:50.799Z,55.21
2022-09-13T02:20:25.779Z,55.10
2022-09-13T02:23:04.762Z,55.22
2022-09-13T02:25:37.679Z,55.27
2022-09-13T02:28:13.919Z,55.32
2022-09-13T02:30:51.735Z,55.14
2022-09-13T02:33:38.291Z,55.10
2022-09-13T02:36:16.848Z,55.22
2022-09-13T02:38:50.884Z,55.15
2022-09-13T02:41:28.051Z,55.30
2022-09-13T02:44:24.389Z,55.16
2022-09-13T02:47:26.874Z,55.25
2022-09-13T02:50:22.899Z,55.26
2022-09-13T02:53:08.796Z,55.35
2022-09-13T02:56:10.869Z,55.35
2022-09-13T02:59:12.329Z,55.35
2022-09-13T03:01:54.903Z,55.60
2022-09-13T03:04:28.961Z,55.47
2022-09-13T03:06:56.826Z,55.65
2022-09-13T03:09:42.002Z,55.71
2022-09-13T03:12:41.411Z,55.79
2022-09-13T03:15:17.778Z,55.94
2022-09-13T03:18:20.875Z,55.87
2022-09-13T03:21:21.513Z,56.02
2022-09-13T03:24:18.983Z,56.08
2022-09-13T03:27:11.534Z,55.77
2022-09-13T03:29:54.554Z,55.98
2022-09-13T03:33:00.013Z,56.09
2022-09-13T03:35:38.891Z,56.28
2022-09-13T03:38:19.908Z,56.19
2022-09-13T03:40:50.043Z,56.24
2022-09-13T03:43:39.018Z,56.26
2022-09-13T03:46:23.174Z,56.70
2022-09-13T03:49:00.498Z,56.37
2022-09-13T03:51:30.909Z,56.34
2022-09-13T03:54:05.089Z,56.54
2022-09-13T03:56:31.872Z,56.69
2022-09-13T03:58:58.652Z,56.49
2022-09-13T04:01:32.821Z,56.35
2022-09-13T04:04:01.553Z,56.22
2022-09-13T04:06:35.402Z,56.33
2022-09-13T04:09:12.566Z,56.36
2022-09-13T04:11:42.038Z,56.60
2022-09-13T04:14:16.309Z,56.47
2022-09-13T04:16:51.050Z,56.62
2022-09-13T04:19:31.932Z,56.95
2022-09-13T04:22:06.063Z,56.75
2022-09-13T04:24:44.963Z,56.92
2022-09-13T04:27:27.102Z,56.54
2022-09-13T04:30:07.162Z,56.49
2022-09-13T04:32:44.047Z,56.65
2022-09-13T04:35:24.523Z,56.78
2022-09-13T04:38:04.268Z,56.69
2022-09-13T04:40:39.412Z,56.63
2022-09-13T04:43:06.258Z,56.48
2022-09-13T04:45:35.084Z,56.25
2022-09-13T04:48:06.113Z,56.16
2022-09-13T04:50:50.277Z,56.14
2022-09-13T04:53:18.459Z,56.26
2022-09-13T04:55:57.290Z,56.49
2022-09-13T04:58:27.426Z,56.65
2022-09-13T05:01:09.036Z,56.28
2022-09-13T05:03:36.822Z,55.99
2022-09-13T05:06:21.351Z,55.79
2022-09-13T05:08:55.696Z,55.96
2022-09-13T05:11:31.114Z,55.82
2022-09-13T05:13:59.092Z,55.80
2022-09-13T05:16:34.227Z,55.78
2022-09-13T05:19:04.962Z,56.14
2022-09-13T05:21:49.317Z,56.11
2022-09-13T05:24:17.466Z,56.10
2022-09-13T05:26:54.266Z,56.03
2022-09-13T05:29:24.694Z,56.08
2022-09-13T05:31:51.947Z,56.08
2022-09-13T05:34:19.712Z,56.03
2022-09-13T05:37:01.301Z,55.62
2022-09-13T05:40:00.260Z,55.52
2022-09-13T05:42:30.492Z,55.41
2022-09-13T05:44:57.473Z,55.44
2022-09-13T05:47:24.818Z,55.56
2022-09-13T05:50:09.224Z,55.38
2022-09-13T05:52:38.374Z,55.18
2022-09-13T05:55:05.565Z,55.11
2022-09-13T05:57:34.104Z,55.03
2022-09-13T06:00:05.456Z,55.07
2022-09-13T06:02:37.005Z,55.12
2022-09-13T06:05:05.493Z,55.32
2022-09-13T06:07:33.160Z,55.39
2022-09-13T06:10:09.292Z,55.34
2022-09-13T06:12:40.255Z,55.23
2022-09-13T06:15:11.639Z,55.18
2022-09-13T06:17:45.126Z,55.16
2022-09-13T06:20:25.159Z,55.08
2022-09-13T06:22:55.930Z,54.86
2022-09-13T06:25:29.394Z,54.87
2022-09-13T06:28:07.094Z,54.81
2022-09-13T06:30:45.098Z,54.94
2022-09-13T06:33:22.505Z,54.71
2022-09-13T06:35:56.202Z,54.56
2022-09-13T06:38:26.732Z,54.53
2022-09-13T06:41:02.495Z,54.54
2022-09-13T06:43:29.538Z,54.35
2022-09-13T06:46:01.703Z,54.26
2022-09-13T06:48:33.372Z,54.25
2022-09-13T06:51:16.765Z,54.08
2022-09-13T06:54:00.227Z,54.04
2022-09-13T06:56:42.212Z,53.88
2022-09-13T06:59:11.736Z,53.86
2022-09-13T07:01:41.505Z,53.39
2022-09-13T07:04:10.767Z,52.78
2022-09-13T07:06:54.486Z,52.65
2022-09-13T07:09:25.028Z,52.34
2022-09-13T07:11:56.371Z,52.07
2022-09-13T07:14:32.969Z,51.59
2022-09-13T07:17:06.428Z,50.92
2022-09-13T07:19:33.270Z,50.32
2022-09-13T07:22:10.250Z,49.96
2022-09-13T07:24:49.746Z,49.94
2022-09-13T07:27:18.433Z,50.20
2022-09-13T07:29:51.975Z,49.77
2022-09-13T07:32:20.260Z,49.59
2022-09-13T07:34:55.304Z,49.42
2022-09-13T07:37:22.974Z,48.72
2022-09-13T07:39:49.756Z,47.99
2022-09-13T07:42:30.401Z,48.33
2022-09-13T07:44:58.681Z,47.79
2022-09-13T07:47:40.473Z,48.10
2022-09-13T07:50:09.412Z,48.00
2022-09-13T07:52:39.527Z,47.75
2022-09-13T07:55:14.051Z,48.28
2022-09-13T07:57:41.133Z,47.72
2022-09-13T08:00:11.015Z,47.39
2022-09-13T08:02:39.795Z,47.09
2022-09-13T08:05:07.484Z,47.67
2022-09-13T08:07:34.410Z,48.16
2022-09-13T08:10:01.172Z,47.75
2022-09-13T08:12:28.207Z,47.17
2022-09-13T08:14:58.538Z,46.94
2022-09-13T08:17:25.358Z,46.98
2022-09-13T08:19:52.435Z,47.08
2022-09-13T08:22:29.425Z,47.06
2022-09-13T08:24:57.827Z,46.71
2022-09-13T08:27:24.758Z,46.43
2022-09-13T08:29:51.594Z,46.54
2022-09-13T08:32:18.490Z,45.45
2022-09-13T08:34:49.120Z,45.93
2022-09-13T08:37:15.996Z,45.62
2022-09-13T08:39:43.160Z,46.15
2022-09-13T08:42:44.286Z,45.32
2022-09-13T08:45:11.299Z,45.02
2022-09-13T08:47:48.755Z,45.57
2022-09-13T08:50:21.345Z,45.77
2022-09-13T08:53:03.460Z,46.06
2022-09-13T08:55:47.279Z,45.93
2022-09-13T08:58:35.946Z,45.28
2022-09-13T09:01:17.421Z,45.47
2022-09-13T09:03:46.946Z,45.69
2022-09-13T09:06:18.861Z,45.33
2022-09-13T09:08:50.011Z,44.90
2022-09-13T09:11:28.595Z,45.31
2022-09-13T09:14:02.906Z,45.15
2022-09-13T09:16:33.839Z,45.13
2022-09-13T09:19:10.450Z,44.61
2022-09-13T09:21:38.008Z,44.87
2022-09-13T09:24:05.001Z,44.89
2022-09-13T09:26:31.847Z,44.20
2022-09-13T09:29:10.737Z,44.20
2022-09-13T09:31:59.332Z,44.47
2022-09-13T09:34:51.599Z,44.27
2022-09-13T09:37:27.069Z,43.79
2022-09-13T09:40:13.770Z,43.55
2022-09-13T09:42:48.424Z,43.25
2022-09-13T09:45:30.902Z,43.90
2022-09-13T09:48:04.951Z,42.80
2022-09-13T09:50:39.735Z,42.90
2022-09-13T09:53:14.588Z,43.06
2022-09-13T09:55:45.833Z,42.36
2022-09-13T09:58:17.195Z,43.00
2022-09-13T10:01:02.331Z,42.97
2022-09-13T10:03:30.142Z,42.90
2022-09-13T10:06:14.946Z,42.73
2022-09-13T10:08:42.631Z,42.66
2022-09-13T10:11:09.706Z,42.73
2022-09-13T10:13:38.897Z,42.57
2022-09-13T10:16:08.172Z,42.50
2022-09-13T10:18:46.369Z,42.78
2022-09-13T10:21:24.617Z,43.40
2022-09-13T10:24:24.375Z,44.12
2022-09-13T10:27:05.590Z,44.87
2022-09-13T10:29:40.712Z,45.70
2022-09-13T10:32:19.646Z,45.93
2022-09-13T10:35:00.149Z,46.26
2022-09-13T10:37:38.691Z,46.10
2022-09-13T10:40:29.735Z,46.40
2022-09-13T10:43:05.286Z,46.68
2022-09-13T10:45:35.941Z,46.75
2022-09-13T10:48:27.305Z,46.74
2022-09-13T10:51:07.574Z,46.49
2022-09-13T10:53:42.742Z,46.51
2022-09-13T10:56:22.774Z,46.49
2022-09-13T10:58:51.340Z,46.32
2022-09-13T11:02:03.115Z,46.53
2022-09-13T11:04:52.781Z,45.96
2022-09-13T11:07:45.926Z,45.80
2022-09-13T11:10:19.005Z,46.40
2022-09-13T11:13:17.878Z,45.55
2022-09-13T11:16:09.319Z,44.98
2022-09-13T11:18:44.946Z,44.41
2022-09-13T11:21:43.861Z,44.38
2022-09-13T11:24:26.495Z,44.66
2022-09-13T11:27:41.867Z,44.61
2022-09-13T11:30:30.421Z,45.44
2022-09-13T11:33:10.249Z,46.04
2022-09-13T11:35:52.830Z,46.30
2022-09-13T11:38:38.737Z,46.27
2022-09-13T11:41:40.974Z,46.45
2022-09-13T11:44:18.866Z,46.54
2022-09-13T11:47:09.042Z,46.52
2022-09-13T11:50:14.573Z,46.50
2022-09-13T11:53:06.993Z,46.62
2022-09-13T11:55:34.224Z,46.82
2022-09-13T11:58:25.954Z,46.95
2022-09-13T12:00:57.653Z,47.44
2022-09-13T12:03:40.033Z,47.00
2022-09-13T12:06:20.020Z,46.74
2022-09-13T12:08:58.746Z,46.61
2022-09-13T12:11:42.826Z,46.43
2022-09-13T12:14:18.456Z,46.66
2022-09-13T12:16:54.828Z,47.08
2022-09-13T12:19:32.394Z,47.11
2022-09-13T12:22:01.511Z,47.36
2022-09-13T12:24:38.061Z,47.48
2022-09-13T12:27:34.404Z,47.74
2022-09-13T12:30:19.652Z,48.01
2022-09-13T12:32:48.027Z,48.31
2022-09-13T12:35:35.335Z,48.56
2022-09-13T12:38:11.143Z,48.66
2022-09-13T12:40:58.811Z,48.74
2022-09-13T12:43:36.012Z,49.00
2022-09-13T12:46:41.121Z,48.81
2022-09-13T12:49:32.869Z,49.04
2022-09-13T12:52:15.884Z,49.35
2022-09-13T12:54:59.512Z,49.62
2022-09-13T12:57:30.887Z,50.56
2022-09-13T12:59:57.658Z,50.57
2022-09-13T13:02:35.263Z,51.09
2022-09-13T13:05:20.595Z,51.10
2022-09-13T13:07:52.721Z,51.15
2022-09-13T13:10:46.127Z,51.56
2022-09-13T13:13:15.083Z,51.57
2022-09-13T13:15:47.791Z,51.58
2022-09-13T13:18:24.787Z,51.98
2022-09-13T13:20:56.202Z,51.95
2022-09-13T13:23:31.174Z,52.25
2022-09-13T13:26:12.041Z,52.20
2022-09-13T13:28:50.758Z,52.51
2022-09-13T13:32:08.717Z,52.31
2022-09-13T13:34:41.735Z,52.04
2022-09-13T13:37:21.928Z,52.30
2022-09-13T13:40:25.859Z,52.09
2022-09-13T13:43:15.897Z,51.81
2022-09-13T13:45:57.186Z,51.97
2022-09-13T13:48:46.175Z,52.22
2022-09-13T13:51:27.191Z,52.10
2022-09-13T13:54:25.413Z,52.27
2022-09-13T13:56:52.143Z,52.10
2022-09-13T13:59:27.433Z,52.11
2022-09-13T14:01:59.602Z,52.04
2022-09-13T14:04:55.658Z,51.76
2022-09-13T14:07:50.905Z,51.88
2022-09-13T14:10:32.006Z,51.78
2022-09-13T14:13:28.166Z,51.63
2022-09-13T14:16:08.453Z,51.52
2022-09-13T14:18:54.050Z,51.40
2022-09-13T14:21:27.210Z,51.52
2022-09-13T14:24:36.071Z,51.53
2022-09-13T14:27:10.120Z,51.64
2022-09-13T14:29:37.091Z,51.47
2022-09-13T14:32:21.239Z,51.46
2022-09-13T14:34:57.050Z,51.44
2022-09-13T14:37:29.970Z,51.35
2022-09-13T14:40:16.633Z,51.41
2022-09-13T14:42:51.541Z,51.39
2022-09-13T14:45:40.259Z,51.70
2022-09-13T14:48:12.463Z,51.59
2022-09-13T14:50:57.179Z,51.51
2022-09-13T14:53:28.735Z,51.54
2022-09-13T14:56:04.143Z,51.76
2022-09-13T14:59:00.306Z,51.94
2022-09-13T15:01:43.135Z,51.99
2022-09-13T15:04:20.280Z,52.06
2022-09-13T15:06:48.672Z,52.05
2022-09-13T15:09:27.344Z,52.36
2022-09-13T15:12:01.401Z,52.39
2022-09-13T15:14:39.311Z,52.07
2022-09-13T15:17:06.065Z,52.20
2022-09-13T15:19:55.304Z,51.98
2022-09-13T15:22:30.838Z,52.34
2022-09-13T15:25:00.531Z,52.33
2022-09-13T15:27:29.477Z,52.64
2022-09-13T15:30:04.131Z,52.38
2022-09-13T15:32:51.216Z,52.71
2022-09-13T15:35:37.442Z,52.57
2022-09-13T15:38:27.937Z,52.61
2022-09-13T15:41:16.199Z,52.62
2022-09-13T15:43:57.440Z,53.02
2022-09-13T15:46:26.121Z,52.73
2022-09-13T15:48:59.070Z,52.51
2022-09-13T15:51:25.972Z,52.79
2022-09-13T15:53:54.911Z,52.70
2022-09-13T15:56:33.467Z,53.00
2022-09-13T15:59:00.379Z,52.93
2022-09-13T16:01:30.411Z,52.92
2022-09-13T16:04:06.257Z,53.00
2022-09-13T16:06:33.321Z,53.01
2022-09-13T16:09:26.411Z,52.94
2022-09-13T16:11:59.973Z,53.00
2022-09-13T16:14:37.363Z,53.24
2022-09-13T16:17:19.347Z,53.28
2022-09-13T16:19:53.705Z,53.50
2022-09-13T16:22:28.023Z,53.46
2022-09-13T16:25:12.431Z,53.78
2022-09-13T16:27:45.048Z,53.57
2022-09-13T16:30:22.967Z,53.81
2022-09-13T16:32:49.988Z,53.55
2022-09-13T16:35:19.834Z,53.49
2022-09-13T16:37:51.453Z,53.68
2022-09-13T16:40:20.797Z,53.64
2022-09-13T16:43:01.396Z,53.75
2022-09-13T16:45:29.367Z,54.04
2022-09-13T16:48:00.064Z,53.86
2022-09-13T16:50:34.336Z,53.87
2022-09-13T16:53:02.693Z,53.80
2022-09-13T16:55:33.489Z,53.79
2022-09-13T16:58:00.853Z,53.83
2022-09-13T17:00:31.082Z,53.84
2022-09-13T17:03:05.159Z,53.77
2022-09-13T17:05:40.451Z,53.86
2022-09-13T17:08:08.700Z,53.60
2022-09-13T17:10:44.529Z,53.86
2022-09-13T17:13:14.540Z,53.82
2022-09-13T17:15:48.221Z,53.77
2022-09-13T17:18:22.179Z,53.72
2022-09-13T17:21:05.349Z,53.84
2022-09-13T17:23:33.570Z,53.88
2022-09-13T17:26:12.562Z,53.93
2022-09-13T17:28:46.030Z,53.81
2022-09-13T17:31:21.115Z,54.00
2022-09-13T17:33:48.546Z,54.17
2022-09-13T17:36:32.525Z,54.19
2022-09-13T17:39:06.190Z,54.13
2022-09-13T17:41:37.497Z,54.17
2022-09-13T17:44:04.933Z,54.15
2022-09-13T17:46:52.598Z,54.11
2022-09-13T17:49:21.571Z,54.55
2022-09-13T17:52:05.510Z,54.34
2022-09-13T17:54:35.531Z,54.57
2022-09-13T17:57:20.595Z,54.45
2022-09-13T17:59:55.104Z,54.37
2022-09-13T18:02:28.487Z,54.30
2022-09-13T18:05:05.380Z,54.11
2022-09-13T18:07:42.492Z,54.08
2022-09-13T18:10:42.717Z,54.25
2022-09-13T18:13:12.135Z,54.34
2022-09-13T18:15:39.253Z,54.51
2022-09-13T18:18:14.608Z,54.59
2022-09-13T18:20:53.018Z,54.71
2022-09-13T18:23:32.608Z,54.66
2022-09-13T18:26:13.582Z,54.58
2022-09-13T18:28:47.789Z,54.57
2022-09-13T18:31:24.678Z,54.57
2022-09-13T18:34:04.460Z,54.58
2022-09-13T18:36:41.570Z,54.64
2022-09-13T18:39:10.163Z,54.74
2022-09-13T18:41:47.595Z,54.61
2022-09-13T18:44:21.648Z,54.72
2022-09-13T18:46:57.513Z,54.60
2022-09-13T18:49:25.659Z,54.67
2022-09-13T18:51:56.076Z,54.55
2022-09-13T18:54:36.142Z,54.85
2022-09-13T18:57:03.221Z,54.69
2022-09-13T18:59:37.605Z,54.69
2022-09-13T19:02:10.430Z,54.70
2022-09-13T19:04:44.171Z,54.60
2022-09-13T19:07:26.705Z,54.49
2022-09-13T19:10:06.668Z,54.60
2022-09-13T19:12:38.605Z,54.64
2022-09-13T19:15:19.256Z,54.61
2022-09-13T19:17:50.533Z,54.74
2022-09-13T19:20:28.408Z,54.81
2022-09-13T19:23:06.639Z,54.82
2022-09-13T19:25:42.248Z,54.77
2022-09-13T19:28:13.158Z,54.67
2022-09-13T19:30:52.761Z,54.69
2022-09-13T19:33:29.735Z,54.72
2022-09-13T19:36:13.340Z,54.73
2022-09-13T19:38:40.355Z,54.77
2022-09-13T19:41:16.539Z,54.88
2022-09-13T19:43:52.628Z,54.84
2022-09-13T19:46:24.416Z,54.95
2022-09-13T19:48:59.958Z,54.85
2022-09-13T19:51:52.316Z,54.80
2022-09-13T19:54:23.357Z,54.83
2022-09-13T19:56:52.555Z,54.84
2022-09-13T19:59:31.622Z,54.88
2022-09-13T20:02:02.479Z,55.04
2022-09-13T20:04:30.565Z,55.18
2022-09-13T20:06:57.488Z,54.99
2022-09-13T20:09:24.527Z,55.02
2022-09-13T20:11:52.536Z,55.17
2022-09-13T20:14:30.409Z,55.18
2022-09-13T20:16:58.174Z,55.54
2022-09-13T20:19:47.565Z,55.62
2022-09-13T20:22:15.554Z,55.38
2022-09-13T20:24:46.277Z,55.41
2022-09-13T20:27:13.750Z,55.61
2022-09-13T20:29:58.687Z,55.47
2022-09-13T20:32:26.776Z,55.72
2022-09-13T20:35:01.198Z,55.45
2022-09-13T20:37:31.823Z,55.26
2022-09-13T20:40:12.900Z,55.32
2022-09-13T20:42:39.827Z,55.49
2022-09-13T20:45:20.683Z,55.42
2022-09-13T20:47:48.929Z,55.44
2022-09-13T20:50:33.901Z,55.46
2022-09-13T20:53:02.815Z,55.44
2022-09-13T20:55:31.390Z,55.70
2022-09-13T20:58:08.984Z,55.61
2022-09-13T21:00:49.552Z,55.46
2022-09-13T21:03:20.284Z,55.69
2022-09-13T21:05:59.833Z,55.79
2022-09-13T21:08:46.911Z,55.89
2022-09-13T21:11:29.369Z,55.72
2022-09-13T21:14:08.841Z,55.67
2022-09-13T21:16:44.017Z,55.82
2022-09-13T21:19:23.905Z,55.69
2022-09-13T21:22:04.480Z,55.67
2022-09-13T21:24:33.268Z,55.61
2022-09-13T21:27:07.902Z,55.67
2022-09-13T21:29:47.851Z,55.70
2022-09-13T21:32:18.383Z,55.72
2022-09-13T21:34:51.375Z,55.84
2022-09-13T21:37:25.187Z,55.76
2022-09-13T21:39:59.566Z,55.76
2022-09-13T21:42:33.729Z,55.83
2022-09-13T21:45:14.094Z,55.92
2022-09-13T21:47:42.177Z,56.05
2022-09-13T21:50:15.986Z,56.07
2022-09-13T21:52:49.687Z,56.15
2022-09-13T21:55:17.971Z,56.28
2022-09-13T21:57:46.152Z,56.39
2022-09-13T22:00:29.894Z,56.44
2022-09-13T22:02:59.198Z,56.49
2022-09-13T22:05:44.063Z,56.58
2022-09-13T22:08:11.704Z,56.67
2022-09-13T22:10:50.969Z,56.72
2022-09-13T22:13:19.076Z,56.93
2022-09-13T22:15:52.830Z,57.02
2022-09-13T22:18:27.803Z,57.09
2022-09-13T22:21:16.867Z,57.27
2022-09-13T22:23:50.780Z,57.27
2022-09-13T22:26:26.980Z,57.35
2022-09-13T22:28:55.952Z,57.25
2022-09-13T22:31:26.074Z,57.35
2022-09-13T22:34:06.953Z,57.35
2022-09-13T22:36:41.003Z,57.46
2022-09-13T22:39:16.928Z,57.66
2022-09-13T22:41:47.151Z,57.97
2022-09-13T22:44:14.000Z,58.11
2022-09-13T22:46:48.122Z,58.29
2022-09-13T22:49:23.262Z,58.22
2022-09-13T22:52:03.667Z,58.21
2022-09-13T22:54:41.018Z,58.41
2022-09-13T22:57:14.420Z,58.20
2022-09-13T22:59:44.341Z,58.26
2022-09-13T23:02:24.600Z,58.37
2022-09-13T23:05:05.162Z,58.16
2022-09-13T23:07:38.464Z,58.12
2022-09-13T23:10:07.355Z,58.37
2022-09-13T23:12:41.039Z,58.34
2022-09-13T23:15:08.419Z,58.38
2022-09-13T23:17:41.510Z,58.35
2022-09-13T23:20:09.686Z,58.36
2022-09-13T23:22:36.531Z,58.44
2022-09-13T23:25:11.053Z,58.61
2022-09-13T23:27:41.175Z,58.65
2022-09-13T23:30:09.277Z,58.61
2022-09-13T23:32:42.540Z,58.82
2022-09-13T23:35:16.553Z,58.69
2022-09-13T23:37:48.129Z,58.59
2022-09-13T23:40:15.147Z,58.44
2022-09-13T23:42:42.100Z,58.56
2022-09-13T23:45:12.425Z,58.46
2022-09-13T23:47:59.239Z,58.56
2022-09-13T23:50:27.413Z,58.60
2022-09-13T23:53:01.017Z,58.67
2022-09-13T23:55:29.396Z,58.35
2022-09-13T23:58:02.898Z,58.36
